Aérodrome :
LOGIN :

S'inscrire | Disclaimer

   EN    FR    IT 

 










Légende :    VFR   VFR Marginal   IFR   IFR Intensif   IFR Très Intensif
Visi : 
Plafond : 
>= 8 km
>= 3000ft
5 à 8 km
1000 à 3000 ft
1500m à 5 km
500 à 1000 ft
800 à 1500m
200 à 500 ft
< 800m
< 200 ft
Symboles :   Orages  Brouillard  Fortes neiges  Fortes précipitations  Vent > 20 kt
SIGMETs :   Divers  Orages  Givrage  Turbulence  Onde Orograph.  Cendres Volcan.







- Altitude de l'aérodrome : 12 ft
- Code IATA : BCN


LEBL - Barcelone

DERNIER METAR :
  • 201430Z 22011KT 9999 FEW030 27/21 Q1017 NOSIG

METARs EXPIRÉS :
  • 201400Z 22009KT 190V250 9999 FEW030 28/20 Q1018 NOSIG
  • 201330Z 21010KT 170V250 9999 FEW030 28/20 Q1018 NOSIG
  • 201300Z 21008KT 9999 FEW030 28/20 Q1018 NOSIG
  • 201230Z 21008KT 170V240 9999 FEW030 28/20 Q1018 NOSIG
  • 201200Z 20009KT 180V240 9999 FEW030 28/20 Q1019 NOSIG

TAF TAF LEBL
Valide du 20 à 12h jusqu'au 21 à 12h UTC


201100Z 2012/2112 22010KT 9999 SCT020 TX30/2012Z TN21/2105Z
BECMG 2018/2020 23006KT
BECMG 2021/2023 34004KT
TEMPO 2106/2111 25006KT
BECMG 2109/2112 10010KT
Pas de NOTAMs connus pour ce terrain.



MET'MAP, la Météo Aéronautique d'un coup d'oeil ! - Copyright ORBIFLY Décembre 2007 - Disclaimer

ORBIFLY MET'MAP TEAM :

Programmation & Développement : Alexandra Zaïnal
Conception & Développement : Baudouin d'Aumeries
Co-Programmation & Développement : Marc-Olivier Méhu
Soutien technique & logistique : Manuel Goepfert

Contact : metmap@orbifly.com




SOURCES & CREDITS :

   NOAA